sensor_id;sensor_type;location;lat;lon;timestamp;pressure;altitude;pressure_sealevel;temperature;humidity
45541;BME280;31265;49.680;8.608;2023-11-21T00:00:19;99941.47;;;8.40;100.00
45541;BME280;31265;49.680;8.608;2023-11-21T00:02:51;99941.84;;;8.36;100.00
45541;BME280;31265;49.680;8.608;2023-11-21T00:05:20;99946.47;;;8.34;100.00
45541;BME280;31265;49.680;8.608;2023-11-21T00:07:50;99949.22;;;8.34;100.00
45541;BME280;31265;49.680;8.608;2023-11-21T00:10:18;99943.88;;;8.36;100.00
45541;BME280;31265;49.680;8.608;2023-11-21T00:12:47;99946.06;;;8.37;100.00
45541;BME280;31265;49.680;8.608;2023-11-21T00:15:16;99941.09;;;8.36;100.00
45541;BME280;31265;49.680;8.608;2023-11-21T00:17:45;99947.72;;;8.33;100.00
45541;BME280;31265;49.680;8.608;2023-11-21T00:20:15;99944.59;;;8.36;100.00
45541;BME280;31265;49.680;8.608;2023-11-21T00:22:43;99944.97;;;8.33;100.00
45541;BME280;31265;49.680;8.608;2023-11-21T00:25:12;99941.09;;;8.36;100.00
45541;BME280;31265;49.680;8.608;2023-11-21T00:27:42;99938.34;;;8.44;100.00
45541;BME280;31265;49.680;8.608;2023-11-21T00:30:13;99944.78;;;8.38;100.00
45541;BME280;31265;49.680;8.608;2023-11-21T00:32:42;99937.59;;;8.43;100.00
45541;BME280;31265;49.680;8.608;2023-11-21T00:35:10;99938.72;;;8.40;100.00
45541;BME280;31265;49.680;8.608;2023-11-21T00:37:40;99934.09;;;8.43;100.00
45541;BME280;31265;49.680;8.608;2023-11-21T00:40:11;99936.31;;;8.44;100.00
45541;BME280;31265;49.680;8.608;2023-11-21T00:42:41;99934.69;;;8.41;100.00
45541;BME280;31265;49.680;8.608;2023-11-21T00:45:10;99937.97;;;8.39;100.00
45541;BME280;31265;49.680;8.608;2023-11-21T00:47:39;99934.28;;;8.37;100.00
45541;BME280;31265;49.680;8.608;2023-11-21T00:50:08;99933.19;;;8.40;100.00
45541;BME280;31265;49.680;8.608;2023-11-21T00:52:37;99937.78;;;8.37;100.00
45541;BME280;31265;49.680;8.608;2023-11-21T00:55:07;99945.53;;;8.39;100.00
45541;BME280;31265;49.680;8.608;2023-11-21T00:57:37;99929.69;;;8.39;100.00
45541;BME280;31265;49.680;8.608;2023-11-21T01:00:06;99936.13;;;8.42;100.00
45541;BME280;31265;49.680;8.608;2023-11-21T01:02:38;99936.31;;;8.36;100.00
45541;BME280;31265;49.680;8.608;2023-11-21T01:05:07;99940.34;;;8.35;100.00
45541;BME280;31265;49.680;8.608;2023-11-21T01:07:36;99939.09;;;8.44;100.00
45541;BME280;31265;49.680;8.608;2023-11-21T01:10:07;99940.94;;;8.42;100.00
45541;BME280;31265;49.680;8.608;2023-11-21T01:12:37;99942.75;;;8.47;100.00
45541;BME280;31265;49.680;8.608;2023-11-21T01:15:06;99947.75;;;8.48;100.00
45541;BME280;31265;49.680;8.608;2023-11-21T01:17:35;99953.63;;;8.45;100.00
45541;BME280;31265;49.680;8.608;2023-11-21T01:20:06;99954.38;;;8.45;100.00
45541;BME280;31265;49.680;8.608;2023-11-21T01:22:39;99955.28;;;8.48;100.00
45541;BME280;31265;49.680;8.608;2023-11-21T01:25:10;99957.13;;;8.45;100.00
45541;BME280;31265;49.680;8.608;2023-11-21T01:27:38;99954.94;;;8.51;100.00
45541;BME280;31265;49.680;8.608;2023-11-21T01:30:07;99962.84;;;8.47;100.00
45541;BME280;31265;49.680;8.608;2023-11-21T01:32:37;99954.19;;;8.43;100.00
45541;BME280;31265;49.680;8.608;2023-11-21T01:35:07;99958.44;;;8.44;100.00
45541;BME280;31265;49.680;8.608;2023-11-21T01:37:37;99957.84;;;8.38;100.00
45541;BME280;31265;49.680;8.608;2023-11-21T01:40:07;99952.53;;;8.40;100.00
45541;BME280;31265;49.680;8.608;2023-11-21T01:42:43;99956.78;;;8.41;100.00
45541;BME280;31265;49.680;8.608;2023-11-21T01:45:12;99967.09;;;8.40;100.00
45541;BME280;31265;49.680;8.608;2023-11-21T01:47:41;99956.78;;;8.41;100.00
45541;BME280;31265;49.680;8.608;2023-11-21T01:50:15;99962.09;;;8.39;100.00
45541;BME280;31265;49.680;8.608;2023-11-21T01:52:45;99959.34;;;8.47;100.00
45541;BME280;31265;49.680;8.608;2023-11-21T01:55:17;99959.00;;;8.43;100.00
45541;BME280;31265;49.680;8.608;2023-11-21T01:58:01;99958.63;;;8.46;100.00
45541;BME280;31265;49.680;8.608;2023-11-21T02:00:30;99965.63;;;8.47;100.00
45541;BME280;31265;49.680;8.608;2023-11-21T02:03:01;99961.19;;;8.44;100.00
45541;BME280;31265;49.680;8.608;2023-11-21T02:05:29;99964.16;;;8.46;100.00
45541;BME280;31265;49.680;8.608;2023-11-21T02:07:58;99965.63;;;8.47;100.00
45541;BME280;31265;49.680;8.608;2023-11-21T02:10:28;99967.44;;;8.52;100.00
45541;BME280;31265;49.680;8.608;2023-11-21T02:12:58;99964.16;;;8.46;100.00
45541;BME280;31265;49.680;8.608;2023-11-21T02:15:31;99966.72;;;8.44;100.00
45541;BME280;31265;49.680;8.608;2023-11-21T02:18:00;99963.06;;;8.42;100.00
45541;BME280;31265;49.680;8.608;2023-11-21T02:20:30;99962.13;;;8.47;100.00
45541;BME280;31265;49.680;8.608;2023-11-21T02:23:05;99972.06;;;8.50;100.00
45541;BME280;31265;49.680;8.608;2023-11-21T02:25:33;99965.41;;;8.53;100.00
45541;BME280;31265;49.680;8.608;2023-11-21T02:28:04;99967.44;;;8.52;100.00
45541;BME280;31265;49.680;8.608;2023-11-21T02:30:34;99971.50;;;8.51;100.00
45541;BME280;31265;49.680;8.608;2023-11-21T02:33:04;99971.88;;;8.48;100.00
45541;BME280;31265;49.680;8.608;2023-11-21T02:35:33;99976.69;;;8.47;100.00
45541;BME280;31265;49.680;8.608;2023-11-21T02:38:02;99975.94;;;8.47;100.00
45541;BME280;31265;49.680;8.608;2023-11-21T02:40:32;99973.72;;;8.45;100.00
45541;BME280;31265;49.680;8.608;2023-11-21T02:43:00;99971.16;;;8.47;100.00
45541;BME280;31265;49.680;8.608;2023-11-21T02:45:29;99968.78;;;8.44;100.00
45541;BME280;31265;49.680;8.608;2023-11-21T02:47:57;99970.78;;;8.43;100.00
45541;BME280;31265;49.680;8.608;2023-11-21T02:50:26;99961.19;;;8.44;100.00
45541;BME280;31265;49.680;8.608;2023-11-21T02:52:55;99969.31;;;8.42;100.00
45541;BME280;31265;49.680;8.608;2023-11-21T02:55:25;99962.47;;;8.43;100.00
45541;BME280;31265;49.680;8.608;2023-11-21T02:57:55;99964.88;;;8.47;100.00
45541;BME280;31265;49.680;8.608;2023-11-21T03:00:25;99962.66;;;8.45;100.00
45541;BME280;31265;49.680;8.608;2023-11-21T03:02:54;99954.19;;;8.43;100.00
45541;BME280;31265;49.680;8.608;2023-11-21T03:05:25;99959.16;;;8.45;100.00
45541;BME280;31265;49.680;8.608;2023-11-21T03:07:56;99965.25;;;8.43;100.00
45541;BME280;31265;49.680;8.608;2023-11-21T03:10:25;99963.97;;;8.44;100.00
45541;BME280;31265;49.680;8.608;2023-11-21T03:12:56;99966.34;;;8.48;100.00
45541;BME280;31265;49.680;8.608;2023-11-21T03:15:25;99970.97;;;8.45;100.00
45541;BME280;31265;49.680;8.608;2023-11-21T03:17:53;99975.38;;;8.40;100.00
45541;BME280;31265;49.680;8.608;2023-11-21T03:20:23;99969.31;;;8.42;100.00
45541;BME280;31265;49.680;8.608;2023-11-21T03:22:53;99967.28;;;8.43;100.00
45541;BME280;31265;49.680;8.608;2023-11-21T03:25:21;99973.53;;;8.43;100.00
45541;BME280;31265;49.680;8.608;2023-11-21T03:27:51;99979.63;;;8.49;100.00
45541;BME280;31265;49.680;8.608;2023-11-21T03:30:21;99977.03;;;8.51;100.00
45541;BME280;31265;49.680;8.608;2023-11-21T03:32:50;99977.78;;;8.52;100.00
45541;BME280;31265;49.680;8.608;2023-11-21T03:35:19;99981.28;;;8.52;100.00
45541;BME280;31265;49.680;8.608;2023-11-21T03:37:48;99975.94;;;8.54;100.00
45541;BME280;31265;49.680;8.608;2023-11-21T03:40:17;99983.13;;;8.50;100.00
45541;BME280;31265;49.680;8.608;2023-11-21T03:42:45;99989.56;;;8.52;100.00
45541;BME280;31265;49.680;8.608;2023-11-21T03:45:13;99988.84;;;8.52;100.00
45541;BME280;31265;49.680;8.608;2023-11-21T03:47:44;99985.53;;;8.53;100.00
45541;BME280;31265;49.680;8.608;2023-11-21T03:50:12;99984.78;;;8.53;100.00
45541;BME280;31265;49.680;8.608;2023-11-21T03:52:42;99991.06;;;8.53;100.00
45541;BME280;31265;49.680;8.608;2023-11-21T03:55:11;99989.94;;;8.56;100.00
45541;BME280;31265;49.680;8.608;2023-11-21T03:57:42;99987.38;;;8.51;100.00
45541;BME280;31265;49.680;8.608;2023-11-21T04:00:11;99993.63;;;8.51;100.00
45541;BME280;31265;49.680;8.608;2023-11-21T04:02:40;99993.97;;;8.55;100.00
45541;BME280;31265;49.680;8.608;2023-11-21T04:05:10;99992.50;;;8.54;100.00
45541;BME280;31265;49.680;8.608;2023-11-21T04:07:39;100000.28;;;8.56;100.00
45541;BME280;31265;49.680;8.608;2023-11-21T04:10:09;99998.97;;;8.57;100.00
45541;BME280;31265;49.680;8.608;2023-11-21T04:12:39;99996.59;;;8.53;100.00
45541;BME280;31265;49.680;8.608;2023-11-21T04:15:09;100009.28;;;8.56;100.00
45541;BME280;31265;49.680;8.608;2023-11-21T04:17:37;100001.72;;;8.57;100.00
45541;BME280;31265;49.680;8.608;2023-11-21T04:20:07;100005.22;;;8.57;100.00
45541;BME280;31265;49.680;8.608;2023-11-21T04:22:39;100007.25;;;8.57;100.00
45541;BME280;31265;49.680;8.608;2023-11-21T04:25:13;100006.91;;;8.60;100.00
45541;BME280;31265;49.680;8.608;2023-11-21T04:27:43;100005.41;;;8.59;100.00
45541;BME280;31265;49.680;8.608;2023-11-21T04:30:13;100005.22;;;8.57;100.00
45541;BME280;31265;49.680;8.608;2023-11-21T04:32:41;100012.25;;;8.58;100.00
45541;BME280;31265;49.680;8.608;2023-11-21T04:35:10;100019.06;;;8.57;100.00
45541;BME280;31265;49.680;8.608;2023-11-21T04:37:40;100013.72;;;8.59;100.00
45541;BME280;31265;49.680;8.608;2023-11-21T04:40:09;100024.59;;;8.57;100.00
45541;BME280;31265;49.680;8.608;2023-11-21T04:42:38;100029.00;;;8.53;100.00
45541;BME280;31265;49.680;8.608;2023-11-21T04:45:08;100027.72;;;8.61;100.00
45541;BME280;31265;49.680;8.608;2023-11-21T04:47:39;100030.31;;;8.59;100.00
45541;BME280;31265;49.680;8.608;2023-11-21T04:50:08;100030.31;;;8.59;100.00
45541;BME280;31265;49.680;8.608;2023-11-21T04:52:37;100037.13;;;8.58;100.00
45541;BME280;31265;49.680;8.608;2023-11-21T04:55:08;100033.44;;;8.56;100.00
45541;BME280;31265;49.680;8.608;2023-11-21T04:57:38;100035.84;;;8.59;100.00
45541;BME280;31265;49.680;8.608;2023-11-21T05:00:09;100041.75;;;8.64;100.00
45541;BME280;31265;49.680;8.608;2023-11-21T05:02:39;100033.81;;;8.60;100.00
45541;BME280;31265;49.680;8.608;2023-11-21T05:05:09;100042.66;;;8.58;100.00
45541;BME280;31265;49.680;8.608;2023-11-21T05:07:40;100054.06;;;8.63;100.00
45541;BME280;31265;49.680;8.608;2023-11-21T05:10:10;100051.31;;;8.63;100.00
45541;BME280;31265;49.680;8.608;2023-11-21T05:12:40;100052.63;;;8.61;100.00
45541;BME280;31265;49.680;8.608;2023-11-21T05:15:09;100050.03;;;8.64;100.00
45541;BME280;31265;49.680;8.608;2023-11-21T05:17:41;100057.75;;;8.65;100.00
45541;BME280;31265;49.680;8.608;2023-11-21T05:20:12;100059.78;;;8.65;100.00
45541;BME280;31265;49.680;8.608;2023-11-21T05:22:41;100059.78;;;8.65;100.00
45541;BME280;31265;49.680;8.608;2023-11-21T05:25:11;100064.03;;;8.66;100.00
45541;BME280;31265;49.680;8.608;2023-11-21T05:27:41;100062.56;;;8.65;100.00
45541;BME280;31265;49.680;8.608;2023-11-21T05:30:10;100064.78;;;8.66;100.00
45541;BME280;31265;49.680;8.608;2023-11-21T05:32:40;100079.34;;;8.67;100.00
45541;BME280;31265;49.680;8.608;2023-11-21T05:35:10;100080.81;;;8.68;100.00
45541;BME280;31265;49.680;8.608;2023-11-21T05:37:43;100079.34;;;8.67;100.00
45541;BME280;31265;49.680;8.608;2023-11-21T05:40:14;100094.63;;;8.68;100.00
45541;BME280;31265;49.680;8.608;2023-11-21T05:42:44;100094.63;;;8.68;100.00
45541;BME280;31265;49.680;8.608;2023-11-21T05:45:12;100090.41;;;8.67;100.00
45541;BME280;31265;49.680;8.608;2023-11-21T05:47:42;100090.22;;;8.65;100.00
45541;BME280;31265;49.680;8.608;2023-11-21T05:50:15;100093.16;;;8.67;100.00
45541;BME280;31265;49.680;8.608;2023-11-21T05:52:45;100092.78;;;8.70;100.00
45541;BME280;31265;49.680;8.608;2023-11-21T05:55:15;100096.13;;;8.69;100.00
45541;BME280;31265;49.680;8.608;2023-11-21T05:57:44;100095.75;;;8.65;100.00
45541;BME280;31265;49.680;8.608;2023-11-21T06:00:14;100099.81;;;8.64;100.00
45541;BME280;31265;49.680;8.608;2023-11-21T06:02:49;100107.19;;;8.61;100.00
45541;BME280;31265;49.680;8.608;2023-11-21T06:05:21;100109.22;;;8.60;100.00
45541;BME280;31265;49.680;8.608;2023-11-21T06:07:52;100112.16;;;8.63;100.00
45541;BME280;31265;49.680;8.608;2023-11-21T06:10:23;100118.59;;;8.65;100.00
45541;BME280;31265;49.680;8.608;2023-11-21T06:12:52;100114.91;;;8.63;100.00
45541;BME280;31265;49.680;8.608;2023-11-21T06:15:21;100123.41;;;8.65;100.00
45541;BME280;31265;49.680;8.608;2023-11-21T06:17:51;100123.41;;;8.65;100.00
45541;BME280;31265;49.680;8.608;2023-11-21T06:20:22;100127.66;;;8.66;100.00
45541;BME280;31265;49.680;8.608;2023-11-21T06:22:51;100133.75;;;8.64;100.00
45541;BME280;31265;49.680;8.608;2023-11-21T06:25:20;100130.59;;;8.68;100.00
45541;BME280;31265;49.680;8.608;2023-11-21T06:27:50;100138.53;;;8.64;100.00
45541;BME280;31265;49.680;8.608;2023-11-21T06:30:21;100136.31;;;8.62;100.00
45541;BME280;31265;49.680;8.608;2023-11-21T06:32:50;100145.34;;;8.70;100.00
45541;BME280;31265;49.680;8.608;2023-11-21T06:35:20;100147.03;;;8.66;100.00
45541;BME280;31265;49.680;8.608;2023-11-21T06:37:49;100142.03;;;8.64;100.00
45541;BME280;31265;49.680;8.608;2023-11-21T06:40:20;100147.38;;;8.62;100.00
45541;BME280;31265;49.680;8.608;2023-11-21T06:42:50;100152.91;;;8.62;100.00
45541;BME280;31265;49.680;8.608;2023-11-21T06:45:18;100160.66;;;8.64;100.00
45541;BME280;31265;49.680;8.608;2023-11-21T06:47:47;100162.88;;;8.65;100.00
45541;BME280;31265;49.680;8.608;2023-11-21T06:50:17;100170.63;;;8.67;100.00
45541;BME280;31265;49.680;8.608;2023-11-21T06:52:46;100171.00;;;8.63;100.00
45541;BME280;31265;49.680;8.608;2023-11-21T06:55:16;100168.22;;;8.63;100.00
45541;BME280;31265;49.680;8.608;2023-11-21T06:57:44;100170.22;;;8.63;100.00
45541;BME280;31265;49.680;8.608;2023-11-21T07:00:17;100180.56;;;8.62;100.00
45541;BME280;31265;49.680;8.608;2023-11-21T07:02:46;100186.84;;;8.63;100.00
45541;BME280;31265;49.680;8.608;2023-11-21T07:05:15;100188.31;;;8.64;100.00
45541;BME280;31265;49.680;8.608;2023-11-21T07:07:48;100188.13;;;8.61;100.00
45541;BME280;31265;49.680;8.608;2023-11-21T07:10:18;100194.03;;;8.66;100.00
45541;BME280;31265;49.680;8.608;2023-11-21T07:12:46;100195.31;;;8.65;100.00
45541;BME280;31265;49.680;8.608;2023-11-21T07:15:16;100197.91;;;8.63;100.00
45541;BME280;31265;49.680;8.608;2023-11-21T07:17:46;100208.22;;;8.70;100.00
45541;BME280;31265;49.680;8.608;2023-11-21T07:20:16;100212.66;;;8.73;100.00
45541;BME280;31265;49.680;8.608;2023-11-21T07:22:45;100213.03;;;8.92;100.00
45541;BME280;31265;49.680;8.608;2023-11-21T07:25:14;100211.91;;;8.80;100.00
45541;BME280;31265;49.680;8.608;2023-11-21T07:27:42;100223.38;;;8.84;100.00
45541;BME280;31265;49.680;8.608;2023-11-21T07:30:12;100221.34;;;8.77;100.00
45541;BME280;31265;49.680;8.608;2023-11-21T07:32:43;100234.97;;;8.67;100.00
45541;BME280;31265;49.680;8.608;2023-11-21T07:35:12;100230.75;;;8.74;100.00
45541;BME280;31265;49.680;8.608;2023-11-21T07:37:40;100218.56;;;8.77;100.00
45541;BME280;31265;49.680;8.608;2023-11-21T07:40:09;100220.78;;;8.78;100.00
45541;BME280;31265;49.680;8.608;2023-11-21T07:42:38;100229.44;;;8.75;100.00
45541;BME280;31265;49.680;8.608;2023-11-21T07:45:08;100238.47;;;8.68;100.00
45541;BME280;31265;49.680;8.608;2023-11-21T07:47:36;100233.69;;;8.68;100.00
45541;BME280;31265;49.680;8.608;2023-11-21T07:50:09;100237.38;;;8.71;100.00
45541;BME280;31265;49.680;8.608;2023-11-21T07:52:37;100236.09;;;8.72;100.00
45541;BME280;31265;49.680;8.608;2023-11-21T07:55:07;100242.19;;;8.78;100.00
45541;BME280;31265;49.680;8.608;2023-11-21T07:57:35;100243.28;;;8.75;100.00
45541;BME280;31265;49.680;8.608;2023-11-21T08:00:05;100254.34;;;8.75;100.00
45541;BME280;31265;49.680;8.608;2023-11-21T08:02:40;100251.41;;;8.80;100.00
45541;BME280;31265;49.680;8.608;2023-11-21T08:05:14;100250.66;;;8.80;100.00
45541;BME280;31265;49.680;8.608;2023-11-21T08:07:54;100251.03;;;8.92;100.00
45541;BME280;31265;49.680;8.608;2023-11-21T08:10:23;100263.97;;;8.97;100.00
45541;BME280;31265;49.680;8.608;2023-11-21T08:12:54;100255.13;;;8.98;100.00
45541;BME280;31265;49.680;8.608;2023-11-21T08:15:24;100258.81;;;8.93;100.00
45541;BME280;31265;49.680;8.608;2023-11-21T08:17:52;100268.03;;;9.03;100.00
45541;BME280;31265;49.680;8.608;2023-11-21T08:20:22;100273.03;;;9.05;100.00
45541;BME280;31265;49.680;8.608;2023-11-21T08:22:52;100275.78;;;9.05;100.00
45541;BME280;31265;49.680;8.608;2023-11-21T08:25:24;100284.09;;;9.05;100.00
45541;BME280;31265;49.680;8.608;2023-11-21T08:27:53;100273.75;;;9.06;100.00
45541;BME280;31265;49.680;8.608;2023-11-21T08:30:21;100271.19;;;9.15;100.00
45541;BME280;31265;49.680;8.608;2023-11-21T08:32:51;100273.75;;;9.21;100.00
45541;BME280;31265;49.680;8.608;2023-11-21T08:35:23;100282.78;;;9.14;100.00
45541;BME280;31265;49.680;8.608;2023-11-21T08:37:53;100290.56;;;9.15;100.00
45541;BME280;31265;49.680;8.608;2023-11-21T08:40:22;100291.66;;;9.20;100.00
45541;BME280;31265;49.680;8.608;2023-11-21T08:42:53;100293.50;;;9.17;100.00
45541;BME280;31265;49.680;8.608;2023-11-21T08:45:22;100292.38;;;9.36;100.00
45541;BME280;31265;49.680;8.608;2023-11-21T08:47:55;100298.13;;;9.30;100.00
45541;BME280;31265;49.680;8.608;2023-11-21T08:50:47;100297.56;;;9.32;100.00
45541;BME280;31265;49.680;8.608;2023-11-21T08:53:15;100303.28;;;9.34;100.00
45541;BME280;31265;49.680;8.608;2023-11-21T08:55:43;100304.94;;;9.29;100.00
45541;BME280;31265;49.680;8.608;2023-11-21T08:58:12;100306.25;;;9.20;100.00
45541;BME280;31265;49.680;8.608;2023-11-21T09:00:40;100312.88;;;9.25;100.00
45541;BME280;31265;49.680;8.608;2023-11-21T09:03:09;100307.91;;;9.31;100.00
45541;BME280;31265;49.680;8.608;2023-11-21T09:05:38;100322.66;;;9.26;100.00
45541;BME280;31265;49.680;8.608;2023-11-21T09:08:08;100322.84;;;9.28;100.00
45541;BME280;31265;49.680;8.608;2023-11-21T09:10:37;100327.09;;;9.44;100.00
45541;BME280;31265;49.680;8.608;2023-11-21T09:13:06;100328.56;;;9.45;100.00
45541;BME280;31265;49.680;8.608;2023-11-21T09:15:37;100325.63;;;9.43;100.00
45541;BME280;31265;49.680;8.608;2023-11-21T09:18:05;100322.66;;;9.57;100.00
45541;BME280;31265;49.680;8.608;2023-11-21T09:20:34;100332.63;;;9.60;100.00
45541;BME280;31265;49.680;8.608;2023-11-21T09:23:03;100335.94;;;9.66;100.00
45541;BME280;31265;49.680;8.608;2023-11-21T09:25:32;100335.75;;;9.79;100.00
45541;BME280;31265;49.680;8.608;2023-11-21T09:28:01;100339.63;;;9.76;100.00
45541;BME280;31265;49.680;8.608;2023-11-21T09:30:31;100344.63;;;9.78;100.00
45541;BME280;31265;49.680;8.608;2023-11-21T09:33:00;100353.13;;;9.72;100.00
45541;BME280;31265;49.680;8.608;2023-11-21T09:35:29;100349.59;;;9.79;100.00
45541;BME280;31265;49.680;8.608;2023-11-21T09:37:57;100349.78;;;9.81;100.00
45541;BME280;31265;49.680;8.608;2023-11-21T09:40:26;100350.50;;;9.74;100.00
45541;BME280;31265;49.680;8.608;2023-11-21T09:42:56;100355.88;;;9.80;100.00
45541;BME280;31265;49.680;8.608;2023-11-21T09:45:26;100357.38;;;9.73;100.00
45541;BME280;31265;49.680;8.608;2023-11-21T09:47:56;100364.75;;;9.71;100.00
45541;BME280;31265;49.680;8.608;2023-11-21T09:50:25;100365.50;;;9.63;100.00
45541;BME280;31265;49.680;8.608;2023-11-21T09:52:57;100373.06;;;9.63;100.00
45541;BME280;31265;49.680;8.608;2023-11-21T09:55:28;100375.84;;;9.63;100.00
45541;BME280;31265;49.680;8.608;2023-11-21T09:58:00;100382.13;;;9.56;100.00
45541;BME280;31265;49.680;8.608;2023-11-21T10:00:30;100383.22;;;9.53;100.00
45541;BME280;31265;49.680;8.608;2023-11-21T10:03:00;100381.91;;;9.69;100.00
45541;BME280;31265;49.680;8.608;2023-11-21T10:05:29;100377.88;;;9.70;100.00
45541;BME280;31265;49.680;8.608;2023-11-21T10:08:02;100385.63;;;9.72;100.00
45541;BME280;31265;49.680;8.608;2023-11-21T10:10:35;100385.81;;;9.74;100.00
45541;BME280;31265;49.680;8.608;2023-11-21T10:13:06;100383.59;;;9.87;100.00
45541;BME280;31265;49.680;8.608;2023-11-21T10:15:34;100386.13;;;10.08;100.00
45541;BME280;31265;49.680;8.608;2023-11-21T10:18:04;100383.38;;;10.01;100.00
45541;BME280;31265;49.680;8.608;2023-11-21T10:20:33;100382.44;;;9.98;100.00
45541;BME280;31265;49.680;8.608;2023-11-21T10:23:05;100375.44;;;10.05;100.00
45541;BME280;31265;49.680;8.608;2023-11-21T10:25:34;100385.03;;;10.04;100.00
45541;BME280;31265;49.680;8.608;2023-11-21T10:28:05;100379.50;;;10.11;100.00
45541;BME280;31265;49.680;8.608;2023-11-21T10:30:35;100385.75;;;10.12;100.00
45541;BME280;31265;49.680;8.608;2023-11-21T10:33:05;100385.38;;;10.31;100.00
45541;BME280;31265;49.680;8.608;2023-11-21T10:35:42;100400.13;;;10.26;100.00
45541;BME280;31265;49.680;8.608;2023-11-21T10:38:14;100397.38;;;10.33;100.00
45541;BME280;31265;49.680;8.608;2023-11-21T10:40:43;100397.22;;;10.31;100.00
45541;BME280;31265;49.680;8.608;2023-11-21T10:43:15;100396.63;;;10.25;100.00
45541;BME280;31265;49.680;8.608;2023-11-21T10:45:44;100400.91;;;10.26;100.00
45541;BME280;31265;49.680;8.608;2023-11-21T10:48:14;100399.03;;;10.37;100.00
45541;BME280;31265;49.680;8.608;2023-11-21T10:50:47;100400.13;;;10.49;100.00
45541;BME280;31265;49.680;8.608;2023-11-21T10:53:15;100396.72;;;10.66;100.00
45541;BME280;31265;49.680;8.608;2023-11-21T10:55:46;100400.38;;;10.76;100.00
45541;BME280;31265;49.680;8.608;2023-11-21T10:58:17;100401.44;;;10.88;100.00
45541;BME280;31265;49.680;8.608;2023-11-21T11:00:47;100414.41;;;10.86;100.00
45541;BME280;31265;49.680;8.608;2023-11-21T11:03:16;100415.78;;;11.02;100.00
45541;BME280;31265;49.680;8.608;2023-11-21T11:05:47;100401.91;;;11.02;100.00
45541;BME280;31265;49.680;8.608;2023-11-21T11:08:21;100403.47;;;11.21;100.00
45541;BME280;31265;49.680;8.608;2023-11-21T11:10:55;100401.84;;;11.43;100.00
45541;BME280;31265;49.680;8.608;2023-11-21T11:13:27;100393.75;;;11.87;100.00
45541;BME280;31265;49.680;8.608;2023-11-21T11:15:58;100400.41;;;11.84;100.00
45541;BME280;31265;49.680;8.608;2023-11-21T11:18:33;100401.09;;;11.92;100.00
45541;BME280;31265;49.680;8.608;2023-11-21T11:21:09;100408.81;;;11.76;100.00
45541;BME280;31265;49.680;8.608;2023-11-21T11:23:52;100400.69;;;11.21;100.00
45541;BME280;31265;49.680;8.608;2023-11-21T11:26:32;100402.16;;;11.22;100.00
45541;BME280;31265;49.680;8.608;2023-11-21T11:29:12;100402.81;;;11.37;100.00
45541;BME280;31265;49.680;8.608;2023-11-21T11:31:54;100397.81;;;11.36;100.00
45541;BME280;31265;49.680;8.608;2023-11-21T11:34:36;100390.09;;;11.52;100.00
45541;BME280;31265;49.680;8.608;2023-11-21T11:37:08;100382.72;;;11.47;100.00
45541;BME280;31265;49.680;8.608;2023-11-21T11:39:39;100383.69;;;11.16;100.00
45541;BME280;31265;49.680;8.608;2023-11-21T11:42:12;100391.16;;;11.06;100.00
45541;BME280;31265;49.680;8.608;2023-11-21T11:44:50;100390.88;;;11.19;100.00
45541;BME280;31265;49.680;8.608;2023-11-21T11:47:25;100402.94;;;10.82;100.00
45541;BME280;31265;49.680;8.608;2023-11-21T11:50:06;100403.69;;;10.82;100.00
45541;BME280;31265;49.680;8.608;2023-11-21T11:52:41;100403.34;;;10.70;100.00
45541;BME280;31265;49.680;8.608;2023-11-21T11:55:10;100408.03;;;10.60;100.00
45541;BME280;31265;49.680;8.608;2023-11-21T11:57:40;100409.69;;;10.55;100.00
45541;BME280;31265;49.680;8.608;2023-11-21T12:00:14;100416.41;;;10.45;100.00
45541;BME280;31265;49.680;8.608;2023-11-21T12:02:47;100414.75;;;10.42;100.00
45541;BME280;31265;49.680;8.608;2023-11-21T12:05:17;100403.09;;;10.36;100.00
45541;BME280;31265;49.680;8.608;2023-11-21T12:07:47;100418.22;;;10.50;100.00
45541;BME280;31265;49.680;8.608;2023-11-21T12:10:17;100422.97;;;10.72;100.00
45541;BME280;31265;49.680;8.608;2023-11-21T12:12:46;100412.41;;;11.11;100.00
45541;BME280;31265;49.680;8.608;2023-11-21T12:15:17;100410.44;;;11.29;100.00
45541;BME280;31265;49.680;8.608;2023-11-21T12:17:46;100416.38;;;11.58;100.00
45541;BME280;31265;49.680;8.608;2023-11-21T12:20:18;100412.72;;;11.98;100.00
45541;BME280;31265;49.680;8.608;2023-11-21T12:22:49;100409.78;;;12.14;100.00
45541;BME280;31265;49.680;8.608;2023-11-21T12:25:22;100407.16;;;12.16;100.00
45541;BME280;31265;49.680;8.608;2023-11-21T12:27:52;100418.44;;;12.00;100.00
45541;BME280;31265;49.680;8.608;2023-11-21T12:30:24;100405.88;;;11.99;100.00
45541;BME280;31265;49.680;8.608;2023-11-21T12:32:55;100414.59;;;11.96;100.00
45541;BME280;31265;49.680;8.608;2023-11-21T12:35:25;100418.03;;;12.04;100.00
45541;BME280;31265;49.680;8.608;2023-11-21T12:37:54;100421.41;;;12.02;100.00
45541;BME280;31265;49.680;8.608;2023-11-21T12:40:26;100435.94;;;11.93;100.00
45541;BME280;31265;49.680;8.608;2023-11-21T12:42:56;100433.50;;;11.97;100.00
45541;BME280;31265;49.680;8.608;2023-11-21T12:45:28;100434.56;;;11.77;100.00
45541;BME280;31265;49.680;8.608;2023-11-21T12:48:00;100429.22;;;11.71;100.00
45541;BME280;31265;49.680;8.608;2023-11-21T12:50:31;100443.78;;;11.87;100.00
45541;BME280;31265;49.680;8.608;2023-11-21T12:53:02;100439.69;;;11.88;100.00
45541;BME280;31265;49.680;8.608;2023-11-21T12:55:33;100443.78;;;11.87;100.00
45541;BME280;31265;49.680;8.608;2023-11-21T12:58:06;100435.03;;;11.91;100.00
45541;BME280;31265;49.680;8.608;2023-11-21T13:00:39;100446.38;;;11.85;100.00
45541;BME280;31265;49.680;8.608;2023-11-21T13:03:10;100445.59;;;11.67;100.00
45541;BME280;31265;49.680;8.608;2023-11-21T13:05:45;100445.78;;;11.61;100.00